Time;durP1;ratioP1;P1;durP2;ratioP2;P2;SDS_P1;SDS_P2;PMS_P1;PMS_P2;Temp;Humidity;BMP_temperature;BMP_pressure;BME280_temperature;BME280_humidity;BME280_pressure;Samples;Min_cycle;Max_cycle;Signal;HPM_P1;HPM_P2
2022/04/04 00:01:35;;;;;;;11.17;8.40;;;4.80;92.10;;;;;;5056937;28;20214;-40
2022/04/04 00:04:04;;;;;;;9.70;7.30;;;4.70;92.10;;;;;;5054033;28;20473;-40
2022/04/04 00:06:33;;;;;;;12.07;8.13;;;4.80;92.10;;;;;;5048458;28;20244;-40
2022/04/04 00:09:02;;;;;;;11.40;8.00;;;4.70;92.10;;;;;;5048380;28;20319;-40
2022/04/04 00:11:34;;;;;;;10.87;7.83;;;4.70;92.20;;;;;;5058730;28;20208;-40
2022/04/04 00:14:03;;;;;;;9.97;7.70;;;4.70;92.20;;;;;;5054290;28;20319;-40
2022/04/04 00:16:32;;;;;;;11.43;8.00;;;4.70;92.10;;;;;;5056926;28;20701;-40
2022/04/04 00:19:00;;;;;;;13.10;7.60;;;4.70;92.10;;;;;;5055018;28;20211;-40
2022/04/04 00:21:28;;;;;;;10.73;7.60;;;4.70;92.20;;;;;;5061593;28;20741;-40
2022/04/04 00:23:55;;;;;;;11.17;7.57;;;4.60;92.10;;;;;;5057689;28;20755;-40
2022/04/04 00:26:27;;;;;;;10.67;7.20;;;4.60;92.10;;;;;;5061787;28;20697;-40
2022/04/04 00:28:56;;;;;;;10.50;8.03;;;4.60;92.20;;;;;;5054961;28;20606;-33
2022/04/04 00:31:24;;;;;;;12.13;7.90;;;4.60;92.20;;;;;;5064217;28;20206;-33
2022/04/04 00:33:53;;;;;;;9.13;7.10;;;4.60;92.30;;;;;;5057050;28;20251;-33
2022/04/04 00:36:23;;;;;;;9.73;7.60;;;4.60;92.20;;;;;;5050724;28;20196;-34
2022/04/04 00:38:50;;;;;;;10.00;7.20;;;4.60;92.20;;;;;;5060163;28;20294;-33
2022/04/04 00:41:17;;;;;;;9.60;7.10;;;4.60;92.30;;;;;;5049474;28;20634;-33
2022/04/04 00:43:45;;;;;;;9.13;7.50;;;4.60;92.20;;;;;;5063612;28;20222;-34
2022/04/04 00:46:17;;;;;;;9.30;6.93;;;4.60;92.20;;;;;;5073474;28;20632;-33
2022/04/04 00:48:47;;;;;;;9.47;7.13;;;4.50;92.20;;;;;;5055331;28;20696;-33
2022/04/04 00:51:14;;;;;;;9.77;7.10;;;4.50;92.20;;;;;;5054587;28;20207;-34
2022/04/04 00:53:44;;;;;;;10.40;6.87;;;4.50;92.30;;;;;;5062685;28;20921;-33
2022/04/04 00:56:12;;;;;;;11.33;8.23;;;4.50;92.20;;;;;;5055008;28;20682;-34
2022/04/04 00:58:41;;;;;;;8.27;7.00;;;4.50;92.30;;;;;;5057774;28;20723;-33
2022/04/04 01:01:09;;;;;;;11.20;6.67;;;4.50;92.20;;;;;;5053398;28;20195;-33
2022/04/04 01:03:36;;;;;;;10.77;7.77;;;4.50;92.20;;;;;;5056680;28;20219;-33
2022/04/04 01:06:06;;;;;;;9.53;6.43;;;4.40;92.20;;;;;;5060783;28;20581;-33
2022/04/04 01:08:34;;;;;;;10.90;7.10;;;4.40;92.30;;;;;;5056466;28;20686;-34
2022/04/04 01:11:01;;;;;;;9.50;6.90;;;4.40;92.20;;;;;;5055487;28;20216;-34
2022/04/04 01:13:28;;;;;;;9.73;6.50;;;4.40;92.20;;;;;;5053972;28;20771;-34
2022/04/04 01:15:58;;;;;;;9.20;6.20;;;4.40;92.20;;;;;;5055608;28;20671;-33
2022/04/04 01:18:25;;;;;;;9.80;6.27;;;4.40;92.30;;;;;;5051351;28;20214;-34
2022/04/04 01:20:57;;;;;;;7.70;6.20;;;4.40;92.30;;;;;;5054199;28;20215;-33
2022/04/04 01:23:37;;;;;;;9.83;6.23;;;4.40;92.30;;;;;;5054684;28;20258;-33
2022/04/04 01:26:10;;;;;;;7.43;6.13;;;4.40;92.30;;;;;;5052417;28;20261;-34
2022/04/04 01:28:39;;;;;;;9.33;5.83;;;4.40;92.40;;;;;;5053785;28;20541;-33
2022/04/04 01:31:07;;;;;;;8.53;6.50;;;4.40;92.30;;;;;;5052356;28;20208;-33
2022/04/04 01:33:35;;;;;;;8.33;5.60;;;4.40;92.40;;;;;;5061793;28;20226;-34
2022/04/04 01:36:05;;;;;;;8.07;6.33;;;4.40;92.60;;;;;;5058699;28;20204;-33
2022/04/04 01:38:37;;;;;;;9.10;6.20;;;4.40;92.40;;;;;;5064185;28;20219;-33
2022/04/04 01:41:05;;;;;;;10.00;6.13;;;4.30;92.40;;;;;;5058286;28;20298;-34
2022/04/04 01:43:32;;;;;;;6.77;5.57;;;4.30;92.30;;;;;;5062950;28;20596;-33
2022/04/04 01:48:50;;;;;;;7.70;5.37;;;4.30;92.40;;;;;;5062149;28;20254;-34
2022/04/04 01:51:25;;;;;;;9.30;6.20;;;4.30;92.40;;;;;;5060936;28;20203;-34
2022/04/04 01:53:55;;;;;;;8.87;5.07;;;4.30;92.40;;;;;;5062740;28;20247;-33
2022/04/04 01:56:22;;;;;;;7.10;5.60;;;4.30;92.40;;;;;;5055436;28;20212;-34
2022/04/04 01:58:49;;;;;;;7.83;5.27;;;4.30;92.40;;;;;;5067848;28;20288;-34
2022/04/04 02:01:21;;;;;;;10.83;5.87;;;4.30;92.40;;;;;;5050655;28;20600;-33
2022/04/04 02:03:57;;;;;;;7.10;5.17;;;4.30;92.40;;;;;;5060985;28;20708;-33
2022/04/04 02:06:28;;;;;;;7.87;5.70;;;4.30;92.50;;;;;;5065735;28;20294;-33
2022/04/04 02:08:55;;;;;;;7.33;5.27;;;4.30;92.50;;;;;;5066770;28;20310;-34
2022/04/04 02:11:23;;;;;;;7.37;5.47;;;4.30;92.50;;;;;;5052594;28;20310;-34
2022/04/04 02:13:50;;;;;;;7.47;5.50;;;4.30;92.40;;;;;;5064382;28;20227;-33
2022/04/04 02:16:20;;;;;;;7.80;5.50;;;4.40;92.50;;;;;;5057730;28;20200;-33
2022/04/04 02:18:47;;;;;;;5.70;4.87;;;4.30;92.80;;;;;;5059210;28;20223;-33
2022/04/04 02:21:14;;;;;;;7.30;5.53;;;4.40;92.50;;;;;;5057539;28;20207;-34
2022/04/04 02:23:44;;;;;;;6.07;5.10;;;4.40;92.50;;;;;;5059150;28;20677;-33
2022/04/04 02:26:11;;;;;;;6.43;5.00;;;4.40;92.60;;;;;;5053295;28;20613;-34
2022/04/04 02:28:38;;;;;;;7.03;5.60;;;4.30;92.50;;;;;;5055438;28;20210;-40
2022/04/04 02:31:08;;;;;;;6.57;5.53;;;4.30;92.60;;;;;;5052718;28;20240;-40
2022/04/04 02:33:38;;;;;;;6.80;4.93;;;4.30;92.50;;;;;;5051499;28;20219;-40
2022/04/04 02:36:05;;;;;;;8.47;5.83;;;4.30;92.50;;;;;;5058601;28;20294;-33
2022/04/04 02:38:32;;;;;;;6.27;5.50;;;4.30;92.50;;;;;;5053437;28;20208;-33
2022/04/04 02:41:00;;;;;;;7.77;5.20;;;4.30;92.50;;;;;;5051497;28;20692;-34
2022/04/04 02:43:32;;;;;;;6.67;5.03;;;4.30;92.50;;;;;;5058585;28;20681;-33
2022/04/04 02:46:01;;;;;;;9.40;5.87;;;4.30;92.50;;;;;;5054627;28;20573;-33
2022/04/04 02:48:28;;;;;;;9.13;5.47;;;4.30;92.50;;;;;;5049283;28;20205;-33
2022/04/04 02:50:58;;;;;;;8.33;5.20;;;4.30;92.60;;;;;;5058105;28;20202;-33
2022/04/04 02:53:25;;;;;;;7.23;5.50;;;4.30;92.50;;;;;;5060246;28;20855;-33
2022/04/04 02:58:45;;;;;;;9.20;5.80;;;4.30;92.50;;;;;;5063138;28;20236;-33
2022/04/04 03:01:19;;;;;;;9.67;6.33;;;4.30;92.50;;;;;;5055036;28;20218;-34
2022/04/04 03:03:49;;;;;;;7.80;6.23;;;4.30;92.50;;;;;;5050189;28;20778;-34
2022/04/04 03:06:20;;;;;;;7.80;6.27;;;4.30;92.50;;;;;;5052498;28;20866;-34
2022/04/04 03:08:50;;;;;;;11.10;6.37;;;4.30;92.50;;;;;;5058801;28;20203;-33
2022/04/04 03:11:18;;;;;;;7.37;5.87;;;4.40;92.60;;;;;;5058670;28;20311;-34
2022/04/04 03:13:48;;;;;;;8.57;6.03;;;4.40;92.60;;;;;;5054898;28;20314;-34
2022/04/04 03:16:18;;;;;;;9.73;6.33;;;4.40;92.50;;;;;;5063233;28;20195;-34
2022/04/04 03:18:45;;;;;;;8.60;6.10;;;4.40;92.50;;;;;;5066303;28;20742;-34
2022/04/04 03:21:13;;;;;;;7.60;5.90;;;4.40;92.60;;;;;;5056323;28;20192;-34
2022/04/04 03:23:42;;;;;;;11.17;6.60;;;4.40;92.60;;;;;;5054964;28;20254;-34
2022/04/04 03:26:10;;;;;;;8.63;6.43;;;4.40;92.60;;;;;;5051458;28;20878;-34
2022/04/04 03:28:38;;;;;;;9.50;6.23;;;4.40;92.60;;;;;;5056258;28;20674;-34
2022/04/04 03:31:08;;;;;;;8.67;6.47;;;4.40;92.60;;;;;;5076635;28;20214;-34
2022/04/04 03:33:40;;;;;;;10.60;6.17;;;4.50;92.70;;;;;;5063947;28;20748;-35
2022/04/04 03:36:08;;;;;;;10.00;6.67;;;4.50;92.70;;;;;;5065134;28;20205;-34
2022/04/04 03:38:35;;;;;;;9.27;6.77;;;4.50;92.70;;;;;;5062692;28;20589;-33
2022/04/04 03:41:07;;;;;;;10.63;7.17;;;4.50;92.70;;;;;;5058591;28;20207;-34
2022/04/04 03:43:37;;;;;;;8.57;6.80;;;4.50;92.80;;;;;;5067082;28;20233;-34
2022/04/04 03:46:09;;;;;;;10.90;7.23;;;4.50;92.70;;;;;;5057715;28;20219;-34
2022/04/04 03:48:41;;;;;;;11.40;6.67;;;4.50;92.80;;;;;;5059751;28;20256;-34
2022/04/04 03:51:12;;;;;;;9.63;6.90;;;4.50;92.80;;;;;;5060643;28;20234;-34
2022/04/04 03:53:42;;;;;;;11.53;7.40;;;4.60;92.90;;;;;;5057188;28;20725;-34
2022/04/04 03:56:11;;;;;;;11.50;7.10;;;4.60;92.90;;;;;;5059788;28;20226;-34
2022/04/04 03:58:41;;;;;;;10.13;6.90;;;4.60;92.90;;;;;;5058758;28;20767;-34
2022/04/04 04:01:08;;;;;;;9.33;6.83;;;4.60;92.90;;;;;;5056237;28;20206;-34
2022/04/04 04:03:36;;;;;;;10.53;7.23;;;4.60;93.00;;;;;;5049873;28;20220;-34
2022/04/04 04:06:16;;;;;;;8.53;7.00;;;4.60;93.00;;;;;;5062895;28;20336;-33
2022/04/04 04:08:48;;;;;;;9.93;6.70;;;4.60;93.00;;;;;;5059200;28;20204;-34
2022/04/04 04:11:18;;;;;;;9.97;7.50;;;4.60;92.90;;;;;;5054754;28;20501;-34
2022/04/04 04:13:50;;;;;;;10.10;7.57;;;4.60;93.00;;;;;;5067042;28;20667;-33
2022/04/04 04:16:23;;;;;;;11.03;7.50;;;4.60;93.10;;;;;;5048405;28;20319;-33
2022/04/04 04:18:57;;;;;;;12.00;7.90;;;4.60;93.40;;;;;;5052986;28;20658;-34
2022/04/04 04:21:25;;;;;;;11.27;7.23;;;4.60;93.20;;;;;;5052965;28;20564;-33
2022/04/04 04:23:55;;;;;;;11.70;7.97;;;4.60;93.10;;;;;;5064707;28;20302;-33
2022/04/04 04:26:23;;;;;;;12.43;8.10;;;4.60;93.10;;;;;;5056737;28;20838;-33
2022/04/04 04:28:51;;;;;;;13.33;7.97;;;4.60;93.20;;;;;;5055881;28;20306;-33
2022/04/04 04:31:18;;;;;;;12.63;7.87;;;4.60;93.10;;;;;;5054217;28;20693;-33
2022/04/04 04:33:48;;;;;;;12.07;8.30;;;4.70;93.20;;;;;;5054633;28;20251;-34
2022/04/04 04:36:22;;;;;;;11.90;8.17;;;4.70;93.30;;;;;;5047510;28;20228;-34
2022/04/04 04:38:55;;;;;;;11.60;7.67;;;4.70;93.20;;;;;;5065237;28;20767;-33
2022/04/04 04:41:25;;;;;;;12.37;8.50;;;4.70;93.40;;;;;;5057861;28;20209;-33
2022/04/04 04:43:52;;;;;;;12.10;8.60;;;4.70;93.40;;;;;;5067456;28;20214;-34
2022/04/04 04:46:22;;;;;;;13.87;7.90;;;4.70;93.20;;;;;;5066656;28;20210;-34
2022/04/04 04:48:52;;;;;;;13.23;8.63;;;4.70;93.20;;;;;;5046676;28;20216;-40
2022/04/04 04:51:19;;;;;;;12.57;8.17;;;4.80;93.30;;;;;;5054152;28;20286;-40
2022/04/04 04:53:46;;;;;;;13.30;8.53;;;4.80;93.30;;;;;;5060752;28;20263;-34
2022/04/04 04:56:18;;;;;;;14.77;8.97;;;4.80;93.30;;;;;;5052103;28;20311;-34
2022/04/04 04:58:45;;;;;;;13.73;9.77;;;4.80;93.30;;;;;;5060627;28;20261;-34
2022/04/04 05:01:15;;;;;;;15.27;8.80;;;4.80;93.50;;;;;;5062227;28;20626;-34
2022/04/04 05:03:43;;;;;;;18.97;9.47;;;4.80;93.40;;;;;;5063615;28;20214;-33
2022/04/04 05:06:15;;;;;;;15.63;9.50;;;4.80;93.40;;;;;;5060654;28;20208;-34
2022/04/04 05:08:42;;;;;;;16.20;10.20;;;4.80;93.40;;;;;;5061590;28;20580;-33
2022/04/04 05:11:14;;;;;;;15.63;9.40;;;4.80;93.40;;;;;;5056493;28;20294;-33
2022/04/04 05:13:46;;;;;;;15.60;10.03;;;4.90;93.50;;;;;;5062403;28;20571;-33
2022/04/04 05:16:16;;;;;;;19.23;11.03;;;4.90;93.50;;;;;;5059733;28;20207;-33
2022/04/04 05:18:44;;;;;;;16.80;11.20;;;4.90;93.50;;;;;;5051843;28;20207;-34
2022/04/04 05:21:14;;;;;;;19.27;11.77;;;4.90;93.50;;;;;;5055626;28;20333;-33
2022/04/04 05:23:41;;;;;;;18.80;10.47;;;4.90;93.60;;;;;;5064853;28;20973;-34
2022/04/04 05:26:09;;;;;;;21.20;11.87;;;4.90;93.60;;;;;;5056696;28;20298;-33
2022/04/04 05:28:36;;;;;;;18.87;11.17;;;4.90;93.60;;;;;;5067239;28;20199;-34
2022/04/04 05:31:05;;;;;;;19.43;11.07;;;5.00;93.70;;;;;;5055148;28;20709;-33
2022/04/04 05:33:32;;;;;;;17.10;11.07;;;5.00;93.60;;;;;;5060876;28;20226;-33
2022/04/04 05:36:06;;;;;;;17.07;11.20;;;5.00;93.70;;;;;;5059245;28;20196;-33
2022/04/04 05:38:36;;;;;;;21.50;10.93;;;5.00;93.70;;;;;;5066236;28;20574;-33
2022/04/04 05:41:03;;;;;;;16.23;10.67;;;5.10;93.70;;;;;;5059024;28;20204;-33
2022/04/04 05:43:31;;;;;;;18.03;10.83;;;5.10;93.70;;;;;;5062577;28;20207;-33
2022/04/04 05:45:58;;;;;;;20.90;10.73;;;5.10;93.70;;;;;;5053294;28;20255;-34
2022/04/04 05:48:31;;;;;;;21.10;11.00;;;5.10;93.80;;;;;;5067439;28;20243;-33
2022/04/04 05:51:03;;;;;;;22.40;10.93;;;5.10;93.80;;;;;;5060141;28;20235;-34
2022/04/04 05:53:35;;;;;;;18.70;11.07;;;5.20;94.30;;;;;;5059753;28;20195;-33
2022/04/04 05:56:06;;;;;;;16.67;9.40;;;5.20;94.00;;;;;;5065327;28;20260;-34
2022/04/04 05:58:33;;;;;;;17.67;10.47;;;5.30;93.90;;;;;;5065714;28;20207;-33
2022/04/04 06:01:05;;;;;;;14.43;9.97;;;5.30;94.00;;;;;;5053315;28;20660;-40
2022/04/04 06:03:33;;;;;;;16.20;10.40;;;5.40;94.10;;;;;;5054858;28;20203;-40
2022/04/04 06:06:01;;;;;;;17.77;10.63;;;5.40;94.20;;;;;;5063006;28;20849;-39
2022/04/04 06:08:31;;;;;;;18.53;11.30;;;5.40;94.10;;;;;;5068903;28;20200;-40
2022/04/04 06:11:00;;;;;;;14.20;10.00;;;5.50;94.30;;;;;;5067870;28;20633;-40
2022/04/04 06:13:28;;;;;;;14.97;9.33;;;5.50;94.30;;;;;;5063628;28;20207;-40
2022/04/04 06:15:55;;;;;;;13.23;9.33;;;5.60;94.30;;;;;;5055792;28;21195;-39
2022/04/04 06:18:22;;;;;;;16.13;9.83;;;5.70;94.40;;;;;;5049078;28;20254;-40
2022/04/04 06:20:55;;;;;;;15.63;9.93;;;5.70;94.70;;;;;;5048405;28;20284;-40
2022/04/04 06:23:26;;;;;;;14.33;9.03;;;5.80;94.50;;;;;;5056804;28;20733;-39
2022/04/04 06:25:58;;;;;;;12.23;9.20;;;5.80;94.60;;;;;;5065969;28;20227;-40
2022/04/04 06:28:27;;;;;;;12.07;8.57;;;5.90;94.60;;;;;;5069265;28;20225;-40
2022/04/04 06:31:00;;;;;;;11.90;8.20;;;6.00;94.70;;;;;;5067679;28;20196;-40
2022/04/04 06:33:29;;;;;;;13.17;8.30;;;6.00;94.80;;;;;;5061106;28;20211;-40
2022/04/04 06:36:01;;;;;;;12.33;9.13;;;6.10;94.70;;;;;;5058502;28;20223;-40
2022/04/04 06:38:31;;;;;;;12.20;7.97;;;6.20;94.90;;;;;;5061576;28;20489;-40
2022/04/04 06:41:00;;;;;;;13.20;8.30;;;6.30;94.80;;;;;;5064150;28;20232;-40
2022/04/04 06:43:30;;;;;;;11.10;7.80;;;6.40;95.00;;;;;;5058575;28;20649;-40
2022/04/04 06:46:00;;;;;;;11.57;7.90;;;6.40;95.00;;;;;;5060119;28;20741;-40
2022/04/04 06:48:28;;;;;;;9.47;7.50;;;6.50;95.10;;;;;;5060899;28;20200;-40
2022/04/04 06:50:59;;;;;;;11.33;7.97;;;6.50;95.10;;;;;;5063492;28;20484;-40
2022/04/04 06:53:28;;;;;;;11.77;7.73;;;6.60;95.30;;;;;;5032298;28;20270;-40
2022/04/04 06:55:56;;;;;;;11.60;8.10;;;6.70;95.30;;;;;;5063888;28;20226;-40
2022/04/04 06:58:28;;;;;;;11.60;7.07;;;6.70;95.30;;;;;;5054983;28;20200;-34
2022/04/04 07:00:58;;;;;;;10.60;7.40;;;6.80;95.30;;;;;;5053899;28;20258;-34
2022/04/04 07:03:28;;;;;;;14.83;8.30;;;6.90;95.40;;;;;;5063906;28;20601;-33
2022/04/04 07:06:00;;;;;;;13.27;7.70;;;6.90;95.30;;;;;;5063809;28;20303;-33
2022/04/04 07:08:28;;;;;;;12.33;7.63;;;7.00;95.50;;;;;;5054823;28;20200;-33
2022/04/04 07:10:56;;;;;;;10.07;7.10;;;7.00;95.60;;;;;;5065208;28;20224;-33
2022/04/04 07:13:23;;;;;;;16.37;8.37;;;7.10;95.50;;;;;;5046932;28;20204;-33
2022/04/04 07:15:52;;;;;;;11.37;7.83;;;7.20;95.70;;;;;;5057661;28;20347;-34
2022/04/04 07:18:22;;;;;;;14.73;8.37;;;7.20;95.60;;;;;;5066910;28;20195;-34
2022/04/04 07:20:50;;;;;;;14.70;7.70;;;7.30;95.80;;;;;;5032033;28;20200;-34
2022/04/04 07:23:17;;;;;;;8.87;7.20;;;7.40;95.80;;;;;;5064692;28;20207;-34
2022/04/04 07:25:44;;;;;;;12.17;7.17;;;7.40;95.80;;;;;;5057962;28;20288;-34
2022/04/04 07:28:15;;;;;;;11.57;8.03;;;7.50;95.80;;;;;;5057957;28;20714;-34
2022/04/04 07:30:44;;;;;;;12.57;7.90;;;7.60;95.90;;;;;;5065854;28;20253;-34
2022/04/04 07:33:15;;;;;;;11.87;8.33;;;7.60;96.00;;;;;;5056860;28;20612;-35
2022/04/04 07:35:46;;;;;;;11.77;7.80;;;7.70;96.00;;;;;;5047538;28;20223;-35
2022/04/04 07:38:16;;;;;;;11.20;7.27;;;7.70;96.10;;;;;;5066353;28;20747;-34
2022/04/04 07:40:46;;;;;;;12.07;7.13;;;7.80;96.20;;;;;;5061027;28;20207;-33
2022/04/04 07:43:18;;;;;;;9.97;8.00;;;7.90;96.20;;;;;;5067747;28;20696;-34
2022/04/04 07:45:46;;;;;;;10.47;8.30;;;7.90;96.20;;;;;;5053663;28;20216;-42
2022/04/04 07:48:13;;;;;;;13.03;7.73;;;8.00;96.30;;;;;;5057620;28;20828;-42
2022/04/04 07:50:43;;;;;;;10.57;8.10;;;8.10;96.30;;;;;;5050195;28;20200;-41
2022/04/04 07:53:13;;;;;;;14.70;7.80;;;8.20;96.40;;;;;;5052627;28;20658;-42
2022/04/04 07:55:41;;;;;;;13.63;7.97;;;8.30;96.30;;;;;;5057878;28;20327;-42
2022/04/04 07:58:08;;;;;;;10.67;8.10;;;8.40;96.40;;;;;;5051886;28;20679;-41
2022/04/04 08:00:38;;;;;;;14.67;8.13;;;8.40;96.40;;;;;;5063104;28;20652;-41
2022/04/04 08:03:08;;;;;;;13.13;7.97;;;8.50;96.50;;;;;;5067788;28;20239;-41
2022/04/04 08:05:35;;;;;;;11.90;8.17;;;8.60;96.50;;;;;;5066859;28;20230;-42
2022/04/04 08:08:05;;;;;;;11.43;8.47;;;8.70;96.50;;;;;;5062722;28;20200;-42
2022/04/04 08:10:34;;;;;;;11.20;7.97;;;8.70;96.90;;;;;;5066625;28;20303;-43
2022/04/04 08:13:02;;;;;;;13.87;7.90;;;8.80;96.60;;;;;;5056305;28;20215;-42
2022/04/04 08:15:30;;;;;;;10.07;7.93;;;8.90;96.80;;;;;;5047347;28;20224;-42
2022/04/04 08:18:04;;;;;;;12.43;8.17;;;8.90;96.80;;;;;;5077955;28;20334;-42
2022/04/04 08:20:36;;;;;;;9.87;7.37;;;9.00;96.90;;;;;;5058035;28;20222;-42
2022/04/04 08:23:06;;;;;;;10.80;7.13;;;9.10;96.90;;;;;;5066117;28;20203;-42
2022/04/04 08:25:33;;;;;;;10.93;7.47;;;9.20;96.90;;;;;;5067384;28;20199;-42
2022/04/04 08:28:03;;;;;;;12.77;7.40;;;9.30;97.00;;;;;;5047899;28;20683;-42
2022/04/04 08:30:30;;;;;;;10.93;6.80;;;9.30;97.00;;;;;;5063713;28;20986;-42
2022/04/04 08:32:58;;;;;;;8.87;6.13;;;9.40;97.00;;;;;;5066367;28;20208;-42
2022/04/04 08:35:27;;;;;;;10.87;6.77;;;9.40;97.10;;;;;;5056759;28;20331;-42
2022/04/04 08:37:54;;;;;;;10.57;7.27;;;9.50;97.20;;;;;;5055851;28;20216;-42
2022/04/04 08:40:22;;;;;;;9.73;6.67;;;9.50;97.20;;;;;;5060381;28;20249;-43
2022/04/04 08:42:49;;;;;;;8.93;6.20;;;9.60;97.30;;;;;;5067126;28;20712;-42
2022/04/04 08:45:16;;;;;;;33.17;8.40;;;9.70;97.30;;;;;;5070200;28;20235;-42
2022/04/04 08:47:46;;;;;;;16.73;6.37;;;9.60;97.30;;;;;;5061697;28;20219;-42
2022/04/04 08:50:15;;;;;;;10.87;6.17;;;9.60;97.30;;;;;;5066321;28;20327;-42
2022/04/04 08:52:45;;;;;;;10.40;6.27;;;9.70;97.30;;;;;;5064259;28;20196;-42
2022/04/04 08:55:18;;;;;;;7.80;6.53;;;9.70;97.20;;;;;;5052668;28;20240;-42
2022/04/04 08:57:45;;;;;;;11.70;5.93;;;9.70;97.20;;;;;;5061380;28;20290;-42
2022/04/04 09:00:13;;;;;;;11.53;5.60;;;9.70;97.10;;;;;;5050899;28;20560;-42
2022/04/04 09:03:02;;;;;;;9.20;6.40;;;9.80;97.20;;;;;;5049553;28;20283;-42
2022/04/04 09:05:50;;;;;;;8.73;5.93;;;9.80;97.30;;;;;;5051477;28;20215;-42
2022/04/04 09:08:23;;;;;;;9.20;6.63;;;9.80;97.40;;;;;;5062742;28;20235;-42
2022/04/04 09:10:54;;;;;;;12.10;6.23;;;9.80;97.40;;;;;;5069262;28;20576;-42
2022/04/04 09:13:28;;;;;;;9.10;6.07;;;9.70;97.70;;;;;;5061693;28;20212;-42
2022/04/04 09:16:04;;;;;;;11.30;6.37;;;9.70;97.50;;;;;;5067802;28;20225;-42
2022/04/04 09:18:41;;;;;;;9.77;7.07;;;9.70;97.60;;;;;;5051482;28;20614;-41
2022/04/04 09:21:13;;;;;;;7.10;5.87;;;9.70;97.60;;;;;;5050739;28;20707;-42
2022/04/04 09:23:45;;;;;;;8.23;6.53;;;9.70;97.60;;;;;;5056871;28;20639;-34
2022/04/04 09:26:31;;;;;;;8.63;6.60;;;9.70;97.60;;;;;;5058741;28;20692;-34
2022/04/04 09:29:08;;;;;;;8.87;7.13;;;9.60;97.70;;;;;;5053486;28;20557;-33
2022/04/04 09:31:45;;;;;;;10.53;6.17;;;9.60;97.70;;;;;;5059665;28;20576;-34
2022/04/04 09:34:17;;;;;;;8.23;6.50;;;9.50;97.70;;;;;;5057851;28;20600;-34
2022/04/04 09:36:48;;;;;;;10.33;6.77;;;9.60;97.80;;;;;;5067016;28;20207;-34
2022/04/04 09:39:16;;;;;;;9.10;6.77;;;9.60;97.80;;;;;;5050447;28;20204;-33
2022/04/04 09:41:49;;;;;;;11.20;7.40;;;9.50;97.80;;;;;;5053336;28;20196;-34
2022/04/04 09:44:25;;;;;;;7.70;6.67;;;9.50;97.80;;;;;;5063388;28;20246;-34
2022/04/04 09:46:53;;;;;;;9.03;6.40;;;9.50;97.80;;;;;;5068117;28;20728;-34
2022/04/04 09:49:23;;;;;;;9.07;6.50;;;9.50;97.90;;;;;;5065797;28;20203;-33
2022/04/04 09:51:52;;;;;;;12.00;6.97;;;9.50;97.70;;;;;;5059241;28;20223;-33
2022/04/04 09:54:23;;;;;;;8.93;6.27;;;9.50;97.70;;;;;;5067968;28;20231;-33
2022/04/04 09:56:56;;;;;;;8.23;6.47;;;9.50;97.80;;;;;;5067608;28;20818;-33
2022/04/04 09:59:30;;;;;;;8.13;5.87;;;9.50;97.80;;;;;;5067115;28;20310;-33
2022/04/04 10:02:05;;;;;;;7.43;6.30;;;9.40;98.00;;;;;;5062577;28;20196;-40
2022/04/04 10:04:38;;;;;;;10.97;5.90;;;9.40;97.90;;;;;;5056881;28;20202;-41
2022/04/04 10:07:12;;;;;;;8.67;6.60;;;9.40;97.80;;;;;;5067754;28;20216;-41
2022/04/04 10:09:39;;;;;;;6.93;6.00;;;9.30;97.70;;;;;;5054960;28;20200;-41
2022/04/04 10:12:11;;;;;;;7.67;6.03;;;9.20;97.70;;;;;;5068341;28;20286;-41
2022/04/04 10:14:38;;;;;;;8.67;5.80;;;9.20;97.80;;;;;;5049093;28;20690;-41
2022/04/04 10:17:11;;;;;;;8.57;6.80;;;9.20;97.70;;;;;;5053008;28;20218;-41
2022/04/04 10:19:42;;;;;;;8.07;5.90;;;9.20;97.80;;;;;;5051175;28;20203;-41
2022/04/04 10:22:10;;;;;;;6.57;5.80;;;9.10;97.70;;;;;;5067674;28;20213;-41
2022/04/04 10:24:38;;;;;;;10.50;6.40;;;9.10;97.70;;;;;;5063751;28;20195;-33
2022/04/04 10:27:12;;;;;;;7.57;5.60;;;9.10;97.70;;;;;;5069209;28;20230;-34
2022/04/04 10:29:52;;;;;;;7.27;5.50;;;9.10;97.80;;;;;;5068225;28;20281;-33
2022/04/04 10:32:25;;;;;;;7.17;5.90;;;9.20;97.80;;;;;;5061315;28;20208;-34
2022/04/04 10:34:55;;;;;;;5.97;5.37;;;9.20;97.80;;;;;;5051545;28;20277;-34
2022/04/04 10:37:39;;;;;;;7.73;5.83;;;9.10;97.70;;;;;;5080895;28;20250;-33
2022/04/04 10:40:18;;;;;;;7.00;5.77;;;9.20;97.70;;;;;;5051828;28;20221;-33
2022/04/04 10:42:48;;;;;;;12.03;5.93;;;9.20;97.70;;;;;;5048864;28;20200;-34
2022/04/04 10:45:19;;;;;;;6.17;5.57;;;9.20;97.80;;;;;;5050021;28;20943;-34
2022/04/04 10:48:04;;;;;;;12.50;5.80;;;9.20;97.70;;;;;;5060002;28;20196;-34
2022/04/04 10:50:33;;;;;;;8.93;6.57;;;9.20;97.80;;;;;;5061743;28;20219;-33
2022/04/04 10:53:06;;;;;;;9.73;7.20;;;9.20;97.80;;;;;;5060281;28;20268;-34
2022/04/04 10:55:39;;;;;;;7.80;7.00;;;9.20;97.90;;;;;;5058927;28;20263;-34
2022/04/04 10:58:16;;;;;;;11.37;7.67;;;9.20;97.80;;;;;;5052338;28;20722;-35
2022/04/04 11:01:07;;;;;;;13.00;7.60;;;9.20;97.80;;;;;;5064231;28;20238;-34
2022/04/04 11:03:42;;;;;;;15.63;7.70;;;9.30;97.70;;;;;;5063581;28;20199;-34
2022/04/04 11:09:02;;;;;;;11.70;7.27;;;9.30;97.90;;;;;;5066702;28;20619;-34
2022/04/04 11:11:47;;;;;;;8.63;7.20;;;9.30;97.80;;;;;;5068222;28;20207;-34
2022/04/04 11:14:54;;;;;;;12.27;7.47;;;9.30;97.90;;;;;;5051472;28;20272;-34
2022/04/04 11:17:29;;;;;;;10.13;7.17;;;9.30;97.80;;;;;;5059729;28;20737;-34
2022/04/04 11:20:04;;;;;;;9.23;6.77;;;9.30;97.70;;;;;;5057504;28;20199;-34
2022/04/04 11:22:37;;;;;;;11.17;7.10;;;9.40;97.80;;;;;;5056499;28;20204;-34
2022/04/04 11:25:12;;;;;;;7.73;6.63;;;9.40;97.80;;;;;;5062889;28;20224;-35
2022/04/04 11:27:40;;;;;;;9.73;6.90;;;9.40;97.90;;;;;;5064775;28;20253;-34
2022/04/04 11:30:13;;;;;;;10.90;6.90;;;9.40;97.80;;;;;;5066181;28;20208;-34
2022/04/04 11:32:54;;;;;;;9.97;6.60;;;9.40;97.90;;;;;;5061654;28;20295;-34
2022/04/04 11:35:32;;;;;;;9.07;6.50;;;9.40;97.90;;;;;;5053675;28;20270;-34
2022/04/04 11:38:07;;;;;;;9.00;6.73;;;9.50;97.90;;;;;;5059868;28;20199;-34
2022/04/04 11:40:38;;;;;;;8.83;6.67;;;9.50;97.90;;;;;;5055297;28;20643;-34
2022/04/04 11:43:11;;;;;;;7.43;6.63;;;9.50;98.10;;;;;;5048472;28;20212;-34
2022/04/04 11:45:40;;;;;;;6.97;5.87;;;9.40;98.30;;;;;;5065226;28;20314;-34
2022/04/04 11:48:14;;;;;;;10.37;6.80;;;9.50;98.10;;;;;;5050174;28;20200;-34
2022/04/04 11:50:42;;;;;;;13.33;6.43;;;9.50;98.30;;;;;;5058557;28;20266;-34
2022/04/04 11:53:16;;;;;;;10.97;6.77;;;9.50;98.40;;;;;;5057673;28;20670;-34
2022/04/04 11:55:47;;;;;;;8.57;5.87;;;9.60;98.30;;;;;;5061299;28;20239;-34
2022/04/04 11:58:20;;;;;;;9.13;6.37;;;9.60;98.20;;;;;;5049226;28;20283;-34
2022/04/04 12:00:55;;;;;;;6.97;5.80;;;9.60;98.40;;;;;;5049505;28;20224;-34
2022/04/04 12:03:27;;;;;;;8.43;6.33;;;9.60;98.30;;;;;;5062803;28;20681;-34
2022/04/04 12:05:58;;;;;;;7.23;6.03;;;9.70;98.60;;;;;;5058550;28;20772;-34
2022/04/04 12:08:27;;;;;;;7.23;6.53;;;9.70;98.40;;;;;;5056896;28;20227;-34
2022/04/04 12:10:57;;;;;;;7.03;5.87;;;9.70;98.50;;;;;;5057513;28;21015;-34
2022/04/04 12:13:26;;;;;;;7.30;5.97;;;9.80;98.40;;;;;;5065627;28;20666;-33
2022/04/04 12:15:55;;;;;;;9.03;6.27;;;9.80;98.50;;;;;;5065911;28;20698;-34
2022/04/04 12:18:27;;;;;;;9.43;6.30;;;9.80;98.50;;;;;;5055932;28;20212;-34
2022/04/04 12:20:58;;;;;;;7.30;6.07;;;9.80;98.80;;;;;;5059154;28;20675;-33
2022/04/04 12:26:22;;;;;;;7.53;6.10;;;9.80;98.60;;;;;;5047126;28;20582;-34
2022/04/04 12:28:53;;;;;;;7.70;6.23;;;9.80;98.70;;;;;;5034312;28;20208;-34
2022/04/04 12:31:28;;;;;;;10.87;6.50;;;9.70;98.70;;;;;;5046917;28;20283;-34
2022/04/04 12:34:10;;;;;;;7.17;6.13;;;9.70;98.70;;;;;;5062003;28;20334;-33
2022/04/04 12:36:44;;;;;;;6.87;5.73;;;9.70;98.60;;;;;;5048675;28;20228;-34
2022/04/04 12:39:19;;;;;;;8.53;6.13;;;9.70;98.70;;;;;;5064980;28;20586;-34
2022/04/04 12:41:47;;;;;;;8.40;6.43;;;9.70;98.70;;;;;;5067118;28;20697;-34
2022/04/04 12:44:22;;;;;;;8.00;6.50;;;9.70;98.60;;;;;;5057659;28;20211;-34
2022/04/04 12:46:50;;;;;;;8.17;6.77;;;9.70;98.60;;;;;;5046445;28;20249;-34
2022/04/04 12:49:20;;;;;;;9.50;6.13;;;9.70;98.80;;;;;;5046423;28;20200;-34
2022/04/04 12:51:59;;;;;;;9.40;5.90;;;9.70;98.70;;;;;;5062195;28;20204;-34
2022/04/04 12:54:31;;;;;;;8.63;6.70;;;9.70;98.70;;;;;;5065792;28;20361;-34
2022/04/04 12:57:01;;;;;;;9.30;6.63;;;9.70;98.90;;;;;;5055789;28;20219;-34
2022/04/04 12:59:28;;;;;;;9.67;6.73;;;9.70;98.80;;;;;;5062920;28;20654;-34
2022/04/04 13:02:05;;;;;;;8.57;6.93;;;9.70;98.70;;;;;;5061064;28;20246;-34
2022/04/04 13:04:37;;;;;;;9.70;6.57;;;9.70;99.00;;;;;;5052188;28;20202;-34
2022/04/04 13:07:20;;;;;;;8.03;6.77;;;9.60;98.60;;;;;;5055127;28;20256;-34
2022/04/04 13:09:54;;;;;;;10.07;6.77;;;9.60;98.80;;;;;;5044959;28;20584;-34
2022/04/04 13:12:30;;;;;;;7.80;6.30;;;9.60;98.90;;;;;;5061360;28;20302;-34
2022/04/04 13:14:58;;;;;;;8.47;6.93;;;9.60;99.00;;;;;;5045996;28;20303;-34
2022/04/04 13:17:34;;;;;;;7.63;6.83;;;9.60;98.90;;;;;;5062537;28;20219;-35
2022/04/04 13:20:05;;;;;;;6.80;5.97;;;9.60;99.00;;;;;;5066340;28;20293;-34